createdAt,value
2018-08-30T00:01:37.404Z,16.17
2018-08-30T00:04:12.573Z,15.48
2018-08-30T00:06:46.517Z,16.27
2018-08-30T00:09:20.331Z,16.32
2018-08-30T00:11:55.521Z,16.62
2018-08-30T00:14:29.601Z,15.72
2018-08-30T00:17:05.495Z,16.52
2018-08-30T00:19:39.871Z,15.50
2018-08-30T00:22:14.453Z,16.73
2018-08-30T00:24:49.483Z,16.25
2018-08-30T00:27:24.240Z,15.70
2018-08-30T00:29:59.409Z,16.57
2018-08-30T00:32:33.578Z,16.05
2018-08-30T00:35:07.672Z,16.10
2018-08-30T00:37:41.996Z,14.35
2018-08-30T00:40:16.872Z,15.83
2018-08-30T00:42:51.781Z,15.28
2018-08-30T00:45:21.947Z,14.87
2018-08-30T00:47:56.263Z,15.78
2018-08-30T00:50:32.314Z,14.43
2018-08-30T00:53:07.079Z,14.83
2018-08-30T00:55:40.589Z,15.18
2018-08-30T00:58:15.656Z,14.30
2018-08-30T01:00:49.784Z,15.13
2018-08-30T01:03:24.529Z,14.50
2018-08-30T01:05:58.205Z,14.85
2018-08-30T01:08:33.550Z,14.45
2018-08-30T01:11:07.929Z,14.98
2018-08-30T01:13:41.696Z,14.00
2018-08-30T01:16:16.395Z,13.58
2018-08-30T01:18:50.603Z,14.30
2018-08-30T01:21:25.559Z,14.33
2018-08-30T01:24:00.065Z,13.30
2018-08-30T01:26:35.894Z,14.18
2018-08-30T01:29:10.482Z,13.70
2018-08-30T01:31:44.620Z,15.32
2018-08-30T01:34:18.373Z,13.83
2018-08-30T01:36:53.201Z,12.90
2018-08-30T01:39:24.881Z,15.50
2018-08-30T01:42:00.017Z,13.90
2018-08-30T01:44:35.190Z,14.07
2018-08-30T01:47:10.995Z,13.20
2018-08-30T01:49:46.528Z,13.83
2018-08-30T01:52:20.555Z,14.00
2018-08-30T01:54:57.246Z,13.10
2018-08-30T01:57:32.087Z,13.58
2018-08-30T02:00:08.071Z,13.83
2018-08-30T02:02:43.376Z,14.68
2018-08-30T02:05:15.990Z,13.32
2018-08-30T02:07:51.624Z,14.23
2018-08-30T02:10:27.195Z,13.07
2018-08-30T02:13:01.208Z,13.28
2018-08-30T02:15:35.707Z,14.18
2018-08-30T02:18:09.300Z,14.70
2018-08-30T02:20:44.982Z,12.82
2018-08-30T02:23:20.576Z,14.10
2018-08-30T02:25:55.744Z,14.65
2018-08-30T02:28:30.360Z,14.60
2018-08-30T02:31:05.868Z,13.93
2018-08-30T02:33:41.380Z,15.45
2018-08-30T02:36:16.132Z,14.87
2018-08-30T02:38:47.264Z,14.55
2018-08-30T02:41:22.483Z,13.08
2018-08-30T02:43:56.146Z,14.35
2018-08-30T02:46:29.818Z,14.43
2018-08-30T02:49:03.479Z,15.32
2018-08-30T02:51:37.991Z,14.60
2018-08-30T02:54:13.473Z,14.85
2018-08-30T02:56:47.716Z,13.90
2018-08-30T02:59:20.415Z,14.93
2018-08-30T03:01:56.539Z,14.43
2018-08-30T03:04:31.410Z,14.98
2018-08-30T03:07:05.448Z,15.20
2018-08-30T03:09:40.606Z,13.68
2018-08-30T03:12:14.123Z,13.53
2018-08-30T03:14:49.044Z,14.35
2018-08-30T03:17:24.259Z,13.88
2018-08-30T03:19:58.816Z,13.58
2018-08-30T03:22:32.389Z,14.03
2018-08-30T03:25:05.361Z,14.25
2018-08-30T03:27:39.966Z,15.48
2018-08-30T03:30:13.888Z,15.45
2018-08-30T03:32:49.955Z,14.90
2018-08-30T03:35:24.645Z,15.83
2018-08-30T03:38:00.358Z,15.98
2018-08-30T03:40:35.221Z,14.95
2018-08-30T03:43:12.040Z,16.55
2018-08-30T03:45:46.254Z,15.50
2018-08-30T03:48:24.791Z,16.75
2018-08-30T03:50:59.889Z,16.25
2018-08-30T03:53:34.259Z,16.77
2018-08-30T03:56:11.872Z,16.10
2018-08-30T03:58:44.349Z,16.07
2018-08-30T04:01:19.532Z,15.00
2018-08-30T04:03:53.195Z,15.28
2018-08-30T04:06:28.462Z,16.37
2018-08-30T04:09:02.599Z,15.30
2018-08-30T04:11:36.523Z,15.90
2018-08-30T04:14:10.959Z,14.90
2018-08-30T04:16:44.354Z,14.80
2018-08-30T04:19:18.571Z,12.78
2018-08-30T04:21:53.237Z,13.40
2018-08-30T04:24:27.066Z,13.38
2018-08-30T04:27:03.668Z,13.00
2018-08-30T04:29:38.090Z,12.20
2018-08-30T04:32:12.050Z,11.75
2018-08-30T04:34:45.352Z,11.75
2018-08-30T04:37:19.893Z,12.60
2018-08-30T04:39:50.242Z,12.85
2018-08-30T04:42:24.242Z,11.25
2018-08-30T04:44:58.688Z,10.58
2018-08-30T04:47:32.648Z,11.57
2018-08-30T04:50:07.817Z,11.15
2018-08-30T04:52:42.443Z,10.65
2018-08-30T04:55:17.630Z,10.72
2018-08-30T04:57:48.701Z,10.58
2018-08-30T05:00:24.173Z,11.30
2018-08-30T05:02:58.989Z,11.78
2018-08-30T05:05:33.340Z,12.80
2018-08-30T05:08:07.346Z,14.20
2018-08-30T05:10:43.362Z,12.15
2018-08-30T05:13:18.824Z,11.85
2018-08-30T05:15:53.511Z,12.75
2018-08-30T05:18:29.941Z,12.45
2018-08-30T05:21:05.325Z,11.65
2018-08-30T05:23:39.201Z,11.55
2018-08-30T05:26:13.570Z,11.57
2018-08-30T05:28:47.366Z,11.68
2018-08-30T05:31:22.409Z,10.40
2018-08-30T05:33:56.388Z,9.75
2018-08-30T05:36:28.398Z,10.88
2018-08-30T05:39:02.977Z,9.50
2018-08-30T05:41:38.503Z,9.93
2018-08-30T05:44:12.681Z,9.55
2018-08-30T05:46:46.943Z,9.43
2018-08-30T05:49:20.886Z,9.03
2018-08-30T05:51:55.074Z,9.05
2018-08-30T05:54:29.633Z,8.53
2018-08-30T05:57:00.992Z,9.88
2018-08-30T05:59:33.984Z,9.13
2018-08-30T06:02:09.428Z,10.10
2018-08-30T06:04:44.005Z,10.03
2018-08-30T06:07:18.309Z,9.00
2018-08-30T06:09:52.347Z,9.73
2018-08-30T06:12:28.068Z,9.98
2018-08-30T06:15:02.117Z,9.35
2018-08-30T06:17:35.549Z,9.10
2018-08-30T06:20:09.417Z,9.68
2018-08-30T06:22:44.078Z,9.38
2018-08-30T06:25:18.466Z,9.30
2018-08-30T06:27:53.416Z,8.85
2018-08-30T06:30:27.757Z,8.70
2018-08-30T06:33:03.172Z,7.85
2018-08-30T06:35:35.984Z,7.83
2018-08-30T06:38:09.989Z,8.23
2018-08-30T06:40:46.255Z,7.97
2018-08-30T06:43:21.141Z,7.80
2018-08-30T06:45:53.931Z,7.80
2018-08-30T06:48:29.333Z,7.47
2018-08-30T06:51:04.445Z,7.20
2018-08-30T06:53:38.879Z,8.03
2018-08-30T06:56:13.572Z,7.25
2018-08-30T06:58:49.253Z,7.10
2018-08-30T07:01:23.844Z,7.83
2018-08-30T07:03:57.947Z,7.83
2018-08-30T07:06:32.618Z,6.95
2018-08-30T07:09:07.223Z,6.85
2018-08-30T07:11:42.243Z,6.45
2018-08-30T07:14:15.702Z,7.10
2018-08-30T07:16:50.475Z,6.83
2018-08-30T07:19:24.715Z,7.92
2018-08-30T07:21:59.208Z,7.90
2018-08-30T07:24:32.827Z,7.08
2018-08-30T07:27:09.533Z,7.50
2018-08-30T07:29:43.097Z,7.85
2018-08-30T07:32:18.202Z,7.50
2018-08-30T07:34:51.897Z,7.83
2018-08-30T07:37:26.409Z,7.17
2018-08-30T07:39:55.195Z,7.30
2018-08-30T07:42:23.918Z,7.17
2018-08-30T07:44:52.657Z,6.70
2018-08-30T07:47:21.612Z,7.22
2018-08-30T07:49:50.365Z,7.72
2018-08-30T07:52:19.844Z,6.50
2018-08-30T07:54:48.654Z,7.20
2018-08-30T07:57:17.403Z,7.50
2018-08-30T07:59:46.093Z,6.60
2018-08-30T08:02:14.921Z,6.60
2018-08-30T08:04:43.672Z,7.65
2018-08-30T08:07:12.671Z,7.33
2018-08-30T08:09:41.405Z,6.78
2018-08-30T08:12:10.109Z,6.10
2018-08-30T08:14:38.809Z,7.45
2018-08-30T08:17:07.605Z,6.78
2018-08-30T08:19:36.392Z,7.20
2018-08-30T08:22:05.183Z,5.85
2018-08-30T08:24:34.142Z,6.42
2018-08-30T08:27:03.049Z,6.33
2018-08-30T08:29:31.753Z,6.87
2018-08-30T08:32:00.527Z,6.12
2018-08-30T08:34:29.262Z,6.67
2018-08-30T08:36:58.676Z,6.25
2018-08-30T08:39:28.234Z,6.50
2018-08-30T08:41:56.976Z,6.70
2018-08-30T08:44:27.478Z,6.78
2018-08-30T08:46:57.112Z,6.58
2018-08-30T08:49:32.539Z,5.83
2018-08-30T08:52:01.390Z,5.65
2018-08-30T08:54:30.186Z,5.33
2018-08-30T08:57:00.726Z,5.80
2018-08-30T08:59:30.841Z,5.17
2018-08-30T09:01:59.583Z,5.40
2018-08-30T09:04:28.472Z,5.75
2018-08-30T09:06:57.470Z,5.17
2018-08-30T09:09:26.262Z,5.95
2018-08-30T09:11:55.002Z,5.87
2018-08-30T09:14:23.797Z,5.35
2018-08-30T09:16:52.529Z,5.10
2018-08-30T09:19:21.307Z,6.10
2018-08-30T09:21:50.074Z,5.70
2018-08-30T09:24:18.810Z,5.83
2018-08-30T09:26:47.566Z,5.72
2018-08-30T09:29:16.382Z,5.20
2018-08-30T09:31:45.142Z,5.05
2018-08-30T09:34:13.921Z,5.83
2018-08-30T09:36:42.781Z,5.10
2018-08-30T09:39:11.526Z,5.65
2018-08-30T09:41:40.229Z,5.65
2018-08-30T09:44:09.022Z,4.70
2018-08-30T09:46:37.841Z,4.67
2018-08-30T09:49:06.640Z,5.35
2018-08-30T09:51:35.388Z,5.00
2018-08-30T09:54:04.165Z,5.47
2018-08-30T09:56:34.178Z,5.25
2018-08-30T09:59:02.939Z,4.67
2018-08-30T10:01:37.089Z,4.72
2018-08-30T10:04:05.950Z,5.00
2018-08-30T10:06:34.684Z,4.83
2018-08-30T10:09:03.641Z,4.62
2018-08-30T10:11:32.406Z,4.30
2018-08-30T10:14:01.130Z,4.37
2018-08-30T10:16:29.862Z,3.35
2018-08-30T10:18:58.576Z,4.00
2018-08-30T10:21:27.453Z,3.50
2018-08-30T10:23:56.245Z,3.10
2018-08-30T10:26:25.100Z,2.85
2018-08-30T10:28:53.846Z,3.08
2018-08-30T10:31:22.624Z,3.20
2018-08-30T10:33:51.626Z,3.00
2018-08-30T10:36:20.361Z,2.83
2018-08-30T10:38:49.049Z,2.67
2018-08-30T10:41:17.781Z,2.70
2018-08-30T10:43:46.519Z,2.87
2018-08-30T10:46:15.238Z,2.37
2018-08-30T10:48:44.022Z,3.08
2018-08-30T10:51:12.813Z,2.62
2018-08-30T10:53:41.583Z,2.72
2018-08-30T10:56:10.576Z,2.50
2018-08-30T10:58:39.352Z,2.25
2018-08-30T11:01:08.069Z,2.98
2018-08-30T11:03:37.005Z,2.72
2018-08-30T11:06:06.234Z,3.08
2018-08-30T11:08:35.074Z,2.83
2018-08-30T11:11:03.896Z,2.75
2018-08-30T11:13:32.803Z,2.40
2018-08-30T11:16:01.497Z,2.22
2018-08-30T11:18:30.281Z,2.80
2018-08-30T11:20:59.039Z,2.60
2018-08-30T11:23:27.781Z,2.65
2018-08-30T11:25:56.603Z,2.22
2018-08-30T11:28:25.342Z,2.45
2018-08-30T11:30:54.138Z,2.95
2018-08-30T11:33:22.905Z,2.80
2018-08-30T11:35:51.686Z,2.47
2018-08-30T11:38:20.513Z,2.92
2018-08-30T11:40:49.233Z,2.00
2018-08-30T11:43:18.110Z,2.27
2018-08-30T11:45:46.839Z,2.22
2018-08-30T11:48:15.622Z,3.05
2018-08-30T11:50:44.344Z,2.30
2018-08-30T11:53:13.087Z,2.75
2018-08-30T11:55:41.841Z,2.25
2018-08-30T11:58:10.579Z,2.92
2018-08-30T12:00:39.501Z,3.00
2018-08-30T12:03:08.432Z,2.58
2018-08-30T12:05:37.233Z,2.20
2018-08-30T12:08:06.196Z,2.85
2018-08-30T12:10:37.447Z,2.65
2018-08-30T12:13:06.295Z,2.35
2018-08-30T12:15:35.036Z,2.75
2018-08-30T12:18:04.538Z,2.50
2018-08-30T12:20:33.330Z,2.50
2018-08-30T12:23:02.168Z,2.62
2018-08-30T12:25:30.932Z,2.27
2018-08-30T12:27:59.709Z,2.50
2018-08-30T12:30:28.493Z,2.17
2018-08-30T12:32:57.229Z,2.40
2018-08-30T12:35:26.158Z,2.27
2018-08-30T12:37:55.016Z,1.95
2018-08-30T12:40:23.923Z,2.17
2018-08-30T12:42:52.822Z,1.80
2018-08-30T12:45:21.386Z,2.10
2018-08-30T12:47:50.226Z,2.22
2018-08-30T12:50:19.121Z,2.20
2018-08-30T12:52:47.864Z,1.80
2018-08-30T12:55:16.771Z,1.80
2018-08-30T12:57:45.504Z,2.02
2018-08-30T13:00:14.381Z,1.80
2018-08-30T13:02:43.241Z,1.85
2018-08-30T13:05:12.133Z,1.87
2018-08-30T13:07:40.852Z,2.20
2018-08-30T13:10:09.669Z,2.30
2018-08-30T13:12:38.503Z,2.35
2018-08-30T13:15:07.497Z,2.27
2018-08-30T13:17:36.077Z,2.10
2018-08-30T13:20:05.039Z,2.30
2018-08-30T13:22:33.965Z,2.58
2018-08-30T13:25:02.953Z,2.80
2018-08-30T13:27:31.569Z,2.60
2018-08-30T13:30:00.233Z,2.83
2018-08-30T13:32:29.171Z,2.85
2018-08-30T13:34:58.160Z,3.20
2018-08-30T13:37:26.702Z,3.45
2018-08-30T13:39:55.449Z,3.37
2018-08-30T13:42:24.240Z,2.40
2018-08-30T13:44:53.193Z,2.92
2018-08-30T13:47:21.981Z,2.33
2018-08-30T13:49:50.427Z,2.58
2018-08-30T13:52:19.372Z,3.27
2018-08-30T13:54:48.364Z,3.20
2018-08-30T13:57:17.181Z,3.00
2018-08-30T13:59:46.055Z,3.42
2018-08-30T14:02:14.776Z,2.92
2018-08-30T14:04:43.369Z,3.30
2018-08-30T14:07:12.310Z,3.52
2018-08-30T14:09:41.156Z,3.80
2018-08-30T14:12:10.101Z,2.47
2018-08-30T14:14:38.702Z,3.60
2018-08-30T14:17:07.276Z,3.40
2018-08-30T14:19:36.113Z,3.33
2018-08-30T14:22:04.924Z,3.72
2018-08-30T14:24:33.715Z,3.37
2018-08-30T14:27:02.693Z,2.90
2018-08-30T14:29:31.279Z,2.85
2018-08-30T14:32:00.075Z,3.15
2018-08-30T14:34:28.879Z,2.47
2018-08-30T14:36:57.785Z,2.90
2018-08-30T14:39:26.512Z,3.95
2018-08-30T14:41:55.321Z,3.60
2018-08-30T14:44:24.067Z,4.12
2018-08-30T14:46:52.958Z,3.98
2018-08-30T14:49:21.690Z,4.20
2018-08-30T14:51:50.476Z,4.10
2018-08-30T14:54:19.377Z,4.15
2018-08-30T14:56:48.445Z,3.60
2018-08-30T14:59:17.220Z,2.67
2018-08-30T15:01:46.078Z,3.00
2018-08-30T15:04:14.765Z,2.50
2018-08-30T15:06:43.498Z,2.40
2018-08-30T15:09:12.248Z,2.20
2018-08-30T15:11:41.009Z,2.75
2018-08-30T15:14:09.741Z,2.95
2018-08-30T15:16:38.491Z,2.42
2018-08-30T15:19:07.330Z,1.67
2018-08-30T15:21:36.082Z,2.17
2018-08-30T15:24:04.961Z,2.30
2018-08-30T15:26:33.698Z,2.10
2018-08-30T15:29:02.545Z,2.42
2018-08-30T15:31:31.267Z,1.67
2018-08-30T15:34:00.295Z,2.20
2018-08-30T15:36:28.786Z,1.52
2018-08-30T15:38:57.681Z,1.85
2018-08-30T15:41:26.632Z,1.52
2018-08-30T15:43:55.373Z,1.80
2018-08-30T15:46:24.204Z,1.40
2018-08-30T15:48:52.988Z,1.50
2018-08-30T15:51:21.730Z,1.42
2018-08-30T15:53:50.533Z,1.40
2018-08-30T15:56:19.294Z,1.35
2018-08-30T15:58:48.055Z,1.87
2018-08-30T16:01:16.918Z,1.60
2018-08-30T16:03:45.656Z,1.65
2018-08-30T16:06:14.407Z,1.40
2018-08-30T16:08:43.225Z,1.50
2018-08-30T16:11:12.073Z,2.22
2018-08-30T16:13:40.787Z,1.55
2018-08-30T16:16:09.583Z,1.67
2018-08-30T16:18:38.522Z,1.70
2018-08-30T16:21:07.121Z,1.35
2018-08-30T16:23:37.028Z,1.42
2018-08-30T16:26:05.890Z,1.62
2018-08-30T16:28:35.276Z,1.40
2018-08-30T16:31:04.099Z,1.72
2018-08-30T16:33:32.852Z,1.75
2018-08-30T16:36:01.613Z,1.55
2018-08-30T16:38:30.384Z,1.52
2018-08-30T16:40:59.157Z,1.50
2018-08-30T16:43:27.871Z,1.62
2018-08-30T16:46:01.423Z,1.10
2018-08-30T16:48:30.213Z,1.12
2018-08-30T16:50:58.954Z,1.70
2018-08-30T16:53:27.703Z,1.60
2018-08-30T16:55:56.444Z,1.25
2018-08-30T16:58:25.231Z,1.40
2018-08-30T17:00:54.021Z,1.65
2018-08-30T17:03:22.785Z,1.10
2018-08-30T17:05:51.597Z,1.32
2018-08-30T17:08:20.327Z,1.42
2018-08-30T17:10:49.090Z,1.07
2018-08-30T17:13:17.866Z,1.25
2018-08-30T17:15:46.677Z,1.47
2018-08-30T17:18:15.470Z,1.27
2018-08-30T17:20:46.991Z,1.20
2018-08-30T17:23:15.728Z,1.40
2018-08-30T17:25:44.783Z,1.07
2018-08-30T17:28:13.772Z,1.40
2018-08-30T17:30:42.885Z,1.35
2018-08-30T17:33:11.999Z,1.52
2018-08-30T17:35:40.778Z,1.82
2018-08-30T17:38:09.662Z,1.30
2018-08-30T17:40:38.465Z,1.77
2018-08-30T17:43:07.298Z,1.17
2018-08-30T17:45:36.201Z,1.25
2018-08-30T17:48:04.910Z,1.20
2018-08-30T17:50:33.856Z,1.12
2018-08-30T17:53:02.518Z,1.37
2018-08-30T17:55:31.375Z,1.22
2018-08-30T17:58:00.245Z,0.90
2018-08-30T18:00:29.053Z,1.27
2018-08-30T18:02:57.808Z,1.17
2018-08-30T18:05:26.618Z,1.10
2018-08-30T18:07:55.446Z,1.22
2018-08-30T18:10:24.236Z,0.90
2018-08-30T18:12:53.045Z,1.25
2018-08-30T18:15:24.632Z,0.80
2018-08-30T18:17:58.533Z,1.17
2018-08-30T18:20:34.963Z,0.85
2018-08-30T18:23:11.315Z,1.52
2018-08-30T18:25:40.936Z,1.30
2018-08-30T18:28:14.738Z,1.27
2018-08-30T18:30:44.305Z,0.95
2018-08-30T18:33:15.563Z,1.52
2018-08-30T18:35:45.149Z,1.40
2018-08-30T18:38:18.547Z,1.42
2018-08-30T18:40:51.229Z,1.85
2018-08-30T18:43:20.085Z,1.87
2018-08-30T18:45:49.272Z,1.25
2018-08-30T18:48:22.356Z,1.55
2018-08-30T18:50:55.479Z,1.17
2018-08-30T18:53:28.698Z,2.02
2018-08-30T18:56:02.342Z,1.60
2018-08-30T18:58:35.359Z,1.57
2018-08-30T19:01:07.068Z,1.55
2018-08-30T19:03:39.785Z,1.50
2018-08-30T19:06:12.421Z,1.52
2018-08-30T19:08:47.284Z,2.25
2018-08-30T19:11:22.867Z,2.67
2018-08-30T19:13:56.724Z,2.17
2018-08-30T19:16:30.854Z,2.05
2018-08-30T19:19:04.837Z,2.20
2018-08-30T19:21:33.579Z,1.75
2018-08-30T19:24:02.404Z,2.15
2018-08-30T19:26:31.271Z,1.77
2018-08-30T19:29:00.057Z,1.95
2018-08-30T19:31:28.809Z,2.35
2018-08-30T19:33:57.595Z,1.42
2018-08-30T19:36:29.141Z,2.12
2018-08-30T19:38:57.991Z,1.70
2018-08-30T19:41:26.762Z,2.08
2018-08-30T19:43:55.540Z,2.25
2018-08-30T19:46:24.578Z,1.72
2018-08-30T19:48:53.384Z,1.82
2018-08-30T19:51:22.183Z,1.77
2018-08-30T19:53:56.642Z,2.00
2018-08-30T19:56:31.883Z,1.60
2018-08-30T19:59:04.035Z,1.30
2018-08-30T20:01:38.896Z,1.30
2018-08-30T20:04:13.289Z,1.67
2018-08-30T20:06:46.648Z,2.10
2018-08-30T20:09:16.699Z,1.27
2018-08-30T20:11:50.900Z,2.17
2018-08-30T20:14:23.648Z,1.37
2018-08-30T20:16:58.288Z,1.12
2018-08-30T20:19:29.210Z,1.57
2018-08-30T20:22:03.367Z,2.10
2018-08-30T20:24:34.886Z,1.50
2018-08-30T20:27:04.909Z,1.32
2018-08-30T20:29:39.328Z,1.62
2018-08-30T20:32:11.546Z,1.75
2018-08-30T20:34:42.469Z,1.80
2018-08-30T20:37:11.989Z,1.20
2018-08-30T20:39:45.865Z,1.22
2018-08-30T20:42:21.758Z,1.65
2018-08-30T20:44:50.666Z,2.05
2018-08-30T20:47:19.418Z,1.65
2018-08-30T20:49:48.319Z,1.20
2018-08-30T20:52:17.240Z,1.45
2018-08-30T20:54:46.014Z,1.57
2018-08-30T20:57:14.912Z,1.35
2018-08-30T20:59:43.814Z,1.27
2018-08-30T21:02:12.710Z,1.02
2018-08-30T21:04:45.918Z,1.10
2018-08-30T21:07:19.362Z,1.57
2018-08-30T21:09:52.091Z,1.17
2018-08-30T21:12:22.555Z,1.52
2018-08-30T21:14:56.887Z,1.50
2018-08-30T21:17:29.245Z,1.72
2018-08-30T21:20:01.924Z,1.22
2018-08-30T21:22:35.170Z,1.30
2018-08-30T21:25:07.941Z,1.02
2018-08-30T21:27:40.410Z,1.30
2018-08-30T21:30:13.457Z,1.00
2018-08-30T21:32:46.983Z,2.08
2018-08-30T21:35:15.798Z,2.00
2018-08-30T21:37:44.518Z,1.07
2018-08-30T21:40:13.257Z,1.57
2018-08-30T21:42:42.066Z,1.42
2018-08-30T21:45:10.779Z,1.80
2018-08-30T21:47:39.540Z,1.75
2018-08-30T21:50:08.508Z,1.50
2018-08-30T21:52:37.225Z,1.50
2018-08-30T21:55:06.789Z,2.10
2018-08-30T21:57:35.580Z,1.40
2018-08-30T22:00:05.281Z,1.37
2018-08-30T22:02:34.095Z,1.30
2018-08-30T22:05:02.897Z,1.30
2018-08-30T22:07:32.159Z,1.75
2018-08-30T22:10:00.888Z,0.93
2018-08-30T22:12:36.206Z,1.35
2018-08-30T22:15:05.082Z,1.20
2018-08-30T22:17:33.824Z,1.50
2018-08-30T22:20:02.824Z,1.70
2018-08-30T22:22:31.522Z,1.30
2018-08-30T22:25:00.254Z,1.97
2018-08-30T22:27:29.098Z,1.10
2018-08-30T22:29:57.862Z,1.15
2018-08-30T22:32:26.633Z,1.60
2018-08-30T22:34:55.366Z,1.50
2018-08-30T22:37:24.066Z,1.57
2018-08-30T22:39:52.861Z,1.20
2018-08-30T22:42:21.633Z,1.30
2018-08-30T22:44:50.387Z,1.43
2018-08-30T22:47:19.088Z,1.30
2018-08-30T22:49:47.810Z,1.57
2018-08-30T22:52:16.558Z,1.90
2018-08-30T22:54:45.259Z,1.50
2018-08-30T22:57:13.960Z,1.47
2018-08-30T22:59:42.720Z,1.53
2018-08-30T23:02:11.421Z,1.60
2018-08-30T23:04:40.156Z,1.40
2018-08-30T23:07:08.871Z,1.40
2018-08-30T23:09:37.608Z,1.60
2018-08-30T23:12:14.507Z,1.50
2018-08-30T23:14:55.059Z,1.70
2018-08-30T23:17:24.306Z,1.50
2018-08-30T23:19:53.068Z,2.00
2018-08-30T23:22:21.791Z,1.75
2018-08-30T23:24:50.516Z,1.77
2018-08-30T23:27:19.205Z,1.80
2018-08-30T23:29:47.894Z,1.35
2018-08-30T23:32:16.718Z,1.50
2018-08-30T23:34:45.480Z,1.50
2018-08-30T23:37:14.168Z,1.37
2018-08-30T23:39:42.968Z,1.80
2018-08-30T23:42:11.717Z,2.47
2018-08-30T23:44:40.409Z,1.27
2018-08-30T23:47:09.285Z,1.30
2018-08-30T23:49:37.970Z,1.30
2018-08-30T23:52:06.731Z,1.63
2018-08-30T23:54:35.453Z,1.63
2018-08-30T23:57:04.269Z,1.00
2018-08-30T23:59:44.230Z,1.33
